PWSweather.com
Personal Weather Stations
Station Observations
RHPWSHOR1
Lostock, BoltonGB

LostockBoltonGB

Lat: 53.58073044, Lon: -2.52344131

Elevation: 389

Station Type: Oregon Scientific WMR100

Latest ConditionsUpdated 7:10:19 AM GMT Tuesday, Jun 27, 2017
Currently Today's Max Today's Min Today's Average
Temperature 52.9°F11.6°C 60.3°F15.7°C 52.9°F11.6°C 56.2°F13.4°C
Dew Point 42.2°F5.7°C 42.4°F5.8°C 25.6°F-3.6°C 34.6°F1.4°C
Winds 1.1 mph ENE1.8 kmh ENE 4.9 mph ENE7.9 kmh ENE - 0.7 mph 1.1 kmh
Wind Gusts 1.1 mph1.8 kmh 4.9 mph7.9 kmh - -
Humidity 67% 67% 27% 45%
Pressure 29.20 in988.8 mb 29.29 in991.9 mb 29.20 in988.8 mb -
Hour Temp Dew Point Humidity Winds Wind Gusts Pressure Precip Precip Rate Daily Precip Total
07:10 AM 52.9°F11.6°C 42.2°F5.7°C 67% 1.1 mph ENE1.8 kmh ENE 1.1 mph1.8 kmh 29.20 in988.8 mb 0.00 in0.0 mm 0.00 in0.0 mm 0.00 in0.0 mm
07:09 AM 52.9°F11.6°C 42.2°F5.7°C 67% 3.8 mph ENE6.1 kmh ENE 3.8 mph6.1 kmh 29.20 in988.8 mb 0.00 in0.0 mm 0.00 in0.0 mm 0.00 in0.0 mm
07:08 AM 52.9°F11.6°C 41.9°F5.5°C 66% 0.9 mph 1.4 kmh 1.1 mph1.8 kmh 29.20 in988.8 mb 0.00 in0.0 mm 0.00 in0.0 mm 0.00 in0.0 mm
07:07 AM 52.9°F11.6°C 41.9°F5.5°C 66% Calm Calm -- 29.20 in988.8 mb 0.00 in0.0 mm 0.00 in0.0 mm 0.00 in0.0 mm
07:06 AM 52.9°F11.6°C 41.9°F5.5°C 66% 2.2 mph NNE3.5 kmh NNE 2.2 mph3.5 kmh 29.20 in988.8 mb 0.00 in0.0 mm 0.00 in0.0 mm 0.00 in0.0 mm
07:04 AM 52.9°F11.6°C 41.9°F5.5°C 66% 1.3 mph ENE2.1 kmh ENE 1.3 mph2.1 kmh 29.20 in988.8 mb 0.00 in0.0 mm 0.00 in0.0 mm 0.00 in0.0 mm
07:03 AM 52.9°F11.6°C 41.9°F5.5°C 66% 0.9 mph WSW1.4 kmh WSW 2.2 mph3.5 kmh 29.20 in988.8 mb 0.00 in0.0 mm 0.00 in0.0 mm 0.00 in0.0 mm
07:02 AM 53.1°F11.7°C 42.0°F5.6°C 66% 0.9 mph W1.4 kmh W 2.0 mph3.2 kmh 29.20 in988.8 mb 0.00 in0.0 mm 0.00 in0.0 mm 0.00 in0.0 mm
07:01 AM 53.1°F11.7°C 42.0°F5.6°C 66% 2.0 mph W3.2 kmh W 2.0 mph3.2 kmh 29.20 in988.8 mb 0.00 in0.0 mm 0.00 in0.0 mm 0.00 in0.0 mm
07:00 AM 53.1°F11.7°C 42.0°F5.6°C 66% 2.0 mph 3.2 kmh 2.0 mph3.2 kmh 29.20 in988.8 mb 0.00 in0.0 mm 0.00 in0.0 mm 0.00 in0.0 mm
06:59 AM 53.1°F11.7°C 42.4°F5.8°C 67% Calm Calm -- 29.23 in989.8 mb 0.00 in0.0 mm 0.00 in0.0 mm 0.00 in0.0 mm
06:58 AM 53.1°F11.7°C 42.0°F5.6°C 66% 1.3 mph W2.1 kmh W 1.3 mph2.1 kmh 29.23 in989.8 mb 0.00 in0.0 mm 0.00 in0.0 mm 0.00 in0.0 mm
06:57 AM 53.1°F11.7°C 42.0°F5.6°C 66% 2.7 mph SSW4.3 kmh SSW 2.7 mph4.3 kmh 29.23 in989.8 mb 0.00 in0.0 mm 0.00 in0.0 mm 0.00 in0.0 mm
06:56 AM 53.1°F11.7°C 42.0°F5.6°C 66% 2.5 mph 4.0 kmh 2.5 mph4.0 kmh 29.23 in989.8 mb 0.00 in0.0 mm 0.00 in0.0 mm 0.00 in0.0 mm
06:55 AM 53.1°F11.7°C 42.0°F5.6°C 66% 3.4 mph ENE5.5 kmh ENE 3.4 mph5.5 kmh 29.23 in989.8 mb 0.00 in0.0 mm 0.00 in0.0 mm 0.00 in0.0 mm
06:54 AM 53.1°F11.7°C 42.0°F5.6°C 66% 1.3 mph 2.1 kmh 2.2 mph3.5 kmh 29.23 in989.8 mb 0.00 in0.0 mm 0.00 in0.0 mm 0.00 in0.0 mm
06:53 AM 53.1°F11.7°C 42.0°F5.6°C 66% 0.9 mph ENE1.4 kmh ENE 0.9 mph1.4 kmh 29.23 in989.8 mb 0.00 in0.0 mm 0.00 in0.0 mm 0.00 in0.0 mm
06:52 AM 53.2°F11.8°C 41.4°F5.2°C 64% 1.6 mph ENE2.6 kmh ENE 2.2 mph3.5 kmh 29.23 in989.8 mb 0.00 in0.0 mm 0.00 in0.0 mm 0.00 in0.0 mm
06:50 AM 53.2°F11.8°C 41.4°F5.2°C 64% 2.2 mph NNE3.5 kmh NNE 2.2 mph3.5 kmh 29.23 in989.8 mb 0.00 in0.0 mm 0.00 in0.0 mm 0.00 in0.0 mm
06:49 AM 53.2°F11.8°C 41.0°F5.0°C 63% 0.9 mph 1.4 kmh 1.1 mph1.8 kmh 29.23 in989.8 mb 0.00 in0.0 mm 0.00 in0.0 mm 0.00 in0.0 mm
06:47 AM 53.2°F11.8°C 41.0°F5.0°C 63% Calm Calm -- 29.23 in989.8 mb 0.00 in0.0 mm 0.00 in0.0 mm 0.00 in0.0 mm
06:46 AM 53.2°F11.8°C 41.0°F5.0°C 63% Calm Calm 2.0 mph3.2 kmh 29.23 in989.8 mb 0.00 in0.0 mm 0.00 in0.0 mm 0.00 in0.0 mm
06:45 AM 53.2°F11.8°C 41.0°F5.0°C 63% 1.3 mph 2.1 kmh 1.3 mph2.1 kmh 29.23 in989.8 mb 0.00 in0.0 mm 0.00 in0.0 mm 0.00 in0.0 mm
06:44 AM 53.2°F11.8°C 41.0°F5.0°C 63% Calm Calm 2.7 mph4.3 kmh 29.23 in989.8 mb 0.00 in0.0 mm 0.00 in0.0 mm 0.00 in0.0 mm
06:43 AM 53.2°F11.8°C 41.0°F5.0°C 63% 2.0 mph ENE3.2 kmh ENE 2.0 mph3.2 kmh 29.23 in989.8 mb 0.00 in0.0 mm 0.00 in0.0 mm 0.00 in0.0 mm
06:42 AM 53.2°F11.8°C 41.0°F5.0°C 63% Calm Calm 2.2 mph3.5 kmh 29.23 in989.8 mb 0.00 in0.0 mm 0.00 in0.0 mm 0.00 in0.0 mm
06:41 AM 53.2°F11.8°C 40.6°F4.8°C 62% 1.1 mph ENE1.8 kmh ENE 1.1 mph1.8 kmh 29.23 in989.8 mb 0.00 in0.0 mm 0.00 in0.0 mm 0.00 in0.0 mm
06:39 AM 53.2°F11.8°C 40.6°F4.8°C 62% Calm Calm -- 29.23 in989.8 mb 0.00 in0.0 mm 0.00 in0.0 mm 0.00 in0.0 mm
06:38 AM 53.2°F11.8°C 40.6°F4.8°C 62% 2.2 mph W3.5 kmh W 2.9 mph4.7 kmh 29.23 in989.8 mb 0.00 in0.0 mm 0.00 in0.0 mm 0.00 in0.0 mm
06:37 AM 53.2°F11.8°C 40.6°F4.8°C 62% 2.0 mph ENE3.2 kmh ENE 2.0 mph3.2 kmh 29.23 in989.8 mb 0.00 in0.0 mm 0.00 in0.0 mm 0.00 in0.0 mm
06:36 AM 53.4°F11.9°C 40.7°F4.8°C 62% Calm Calm 2.5 mph4.0 kmh 29.23 in989.8 mb 0.00 in0.0 mm 0.00 in0.0 mm 0.00 in0.0 mm
06:35 AM 53.2°F11.8°C 40.6°F4.8°C 62% Calm Calm -- 29.23 in989.8 mb 0.00 in0.0 mm 0.00 in0.0 mm 0.00 in0.0 mm
06:34 AM 53.4°F11.9°C 41.2°F5.1°C 63% Calm Calm -- 29.23 in989.8 mb 0.00 in0.0 mm 0.00 in0.0 mm 0.00 in0.0 mm
06:33 AM 53.4°F11.9°C 40.7°F4.8°C 62% Calm Calm -- 29.23 in989.8 mb 0.00 in0.0 mm 0.00 in0.0 mm 0.00 in0.0 mm
06:32 AM 53.4°F11.9°C 40.7°F4.8°C 62% Calm Calm 0.9 mph1.4 kmh 29.23 in989.8 mb 0.00 in0.0 mm 0.00 in0.0 mm 0.00 in0.0 mm
06:31 AM 53.4°F11.9°C 40.7°F4.8°C 62% 0.9 mph ESE1.4 kmh ESE 1.3 mph2.1 kmh 29.23 in989.8 mb 0.00 in0.0 mm 0.00 in0.0 mm 0.00 in0.0 mm
06:30 AM 53.4°F11.9°C 40.7°F4.8°C 62% 1.3 mph NNE2.1 kmh NNE 1.3 mph2.1 kmh 29.23 in989.8 mb 0.00 in0.0 mm 0.00 in0.0 mm 0.00 in0.0 mm
06:29 AM 53.4°F11.9°C 40.7°F4.8°C 62% Calm Calm 1.6 mph2.6 kmh 29.23 in989.8 mb 0.00 in0.0 mm 0.00 in0.0 mm 0.00 in0.0 mm
06:28 AM 53.4°F11.9°C 40.7°F4.8°C 62% Calm Calm 2.5 mph4.0 kmh 29.23 in989.8 mb 0.00 in0.0 mm 0.00 in0.0 mm 0.00 in0.0 mm
06:27 AM 53.4°F11.9°C 40.3°F4.6°C 61% 0.9 mph NE1.4 kmh NE 1.3 mph2.1 kmh 29.23 in989.8 mb 0.00 in0.0 mm 0.00 in0.0 mm 0.00 in0.0 mm
06:26 AM 53.4°F11.9°C 40.3°F4.6°C 61% 2.0 mph ENE3.2 kmh ENE 2.0 mph3.2 kmh 29.23 in989.8 mb 0.00 in0.0 mm 0.00 in0.0 mm 0.00 in0.0 mm
06:25 AM 53.4°F11.9°C 40.3°F4.6°C 61% 1.6 mph E2.6 kmh E 1.6 mph2.6 kmh 29.23 in989.8 mb 0.00 in0.0 mm 0.00 in0.0 mm 0.00 in0.0 mm
06:24 AM 53.4°F11.9°C 39.9°F4.4°C 60% Calm Calm 2.5 mph4.0 kmh 29.23 in989.8 mb 0.00 in0.0 mm 0.00 in0.0 mm 0.00 in0.0 mm
06:23 AM 53.4°F11.9°C 39.9°F4.4°C 60% 2.5 mph NNE4.0 kmh NNE 2.5 mph4.0 kmh 29.23 in989.8 mb 0.00 in0.0 mm 0.00 in0.0 mm 0.00 in0.0 mm
06:22 AM 53.4°F11.9°C 39.9°F4.4°C 60% Calm Calm 2.0 mph3.2 kmh 29.23 in989.8 mb 0.00 in0.0 mm 0.00 in0.0 mm 0.00 in0.0 mm
06:21 AM 53.4°F11.9°C 39.9°F4.4°C 60% 2.5 mph E4.0 kmh E 3.6 mph5.8 kmh 29.23 in989.8 mb 0.00 in0.0 mm 0.00 in0.0 mm 0.00 in0.0 mm
06:20 AM 53.4°F11.9°C 39.9°F4.4°C 60% Calm Calm -- 29.23 in989.8 mb 0.00 in0.0 mm 0.00 in0.0 mm 0.00 in0.0 mm
06:19 AM 53.4°F11.9°C 39.9°F4.4°C 60% 2.0 mph SW3.2 kmh SW 3.8 mph6.1 kmh 29.23 in989.8 mb 0.00 in0.0 mm 0.00 in0.0 mm 0.00 in0.0 mm
06:18 AM 53.6°F12.0°C 39.6°F4.2°C 59% 3.6 mph ESE5.8 kmh ESE 3.6 mph5.8 kmh 29.23 in989.8 mb 0.00 in0.0 mm 0.00 in0.0 mm 0.00 in0.0 mm
06:17 AM 53.6°F12.0°C 39.6°F4.2°C 59% Calm Calm 1.1 mph1.8 kmh 29.23 in989.8 mb 0.00 in0.0 mm 0.00 in0.0 mm 0.00 in0.0 mm
06:16 AM 53.6°F12.0°C 39.6°F4.2°C 59% 2.2 mph ESE3.5 kmh ESE 2.2 mph3.5 kmh 29.23 in989.8 mb 0.00 in0.0 mm 0.00 in0.0 mm 0.00 in0.0 mm
06:15 AM 53.6°F12.0°C 39.6°F4.2°C 59% Calm Calm -- 29.23 in989.8 mb 0.00 in0.0 mm 0.00 in0.0 mm 0.00 in0.0 mm
06:14 AM 53.6°F12.0°C 39.6°F4.2°C 59% 0.9 mph NNE1.4 kmh NNE 0.9 mph1.4 kmh 29.23 in989.8 mb 0.00 in0.0 mm 0.00 in0.0 mm 0.00 in0.0 mm
06:13 AM 53.6°F12.0°C 39.6°F4.2°C 59% 1.6 mph 2.6 kmh 1.6 mph2.6 kmh 29.23 in989.8 mb 0.00 in0.0 mm 0.00 in0.0 mm 0.00 in0.0 mm
06:12 AM 53.6°F12.0°C 39.6°F4.2°C 59% 2.0 mph ENE3.2 kmh ENE 2.0 mph3.2 kmh 29.23 in989.8 mb 0.00 in0.0 mm 0.00 in0.0 mm 0.00 in0.0 mm
06:11 AM 53.6°F12.0°C 39.6°F4.2°C 59% Calm Calm -- 29.23 in989.8 mb 0.00 in0.0 mm 0.00 in0.0 mm 0.00 in0.0 mm
06:10 AM 53.6°F12.0°C 39.6°F4.2°C 59% 2.5 mph ENE4.0 kmh ENE 2.5 mph4.0 kmh 29.23 in989.8 mb 0.00 in0.0 mm 0.00 in0.0 mm 0.00 in0.0 mm
06:09 AM 53.6°F12.0°C 39.6°F4.2°C 59% Calm Calm 2.2 mph3.5 kmh 29.23 in989.8 mb 0.00 in0.0 mm 0.00 in0.0 mm 0.00 in0.0 mm
06:08 AM 53.6°F12.0°C 39.2°F4.0°C 58% Calm Calm 0.9 mph1.4 kmh 29.23 in989.8 mb 0.00 in0.0 mm 0.00 in0.0 mm 0.00 in0.0 mm
06:07 AM 53.6°F12.0°C 39.6°F4.2°C 59% 2.5 mph E4.0 kmh E 2.5 mph4.0 kmh 29.23 in989.8 mb 0.00 in0.0 mm 0.00 in0.0 mm 0.00 in0.0 mm
06:06 AM 53.6°F12.0°C 39.2°F4.0°C 58% Calm Calm -- 29.23 in989.8 mb 0.00 in0.0 mm 0.00 in0.0 mm 0.00 in0.0 mm
06:05 AM 53.6°F12.0°C 39.2°F4.0°C 58% 1.6 mph ENE2.6 kmh ENE 1.6 mph2.6 kmh 29.23 in989.8 mb 0.00 in0.0 mm 0.00 in0.0 mm 0.00 in0.0 mm
06:04 AM 53.6°F12.0°C 39.2°F4.0°C 58% 2.0 mph ENE3.2 kmh ENE 2.0 mph3.2 kmh 29.23 in989.8 mb 0.00 in0.0 mm 0.00 in0.0 mm 0.00 in0.0 mm
06:03 AM 53.6°F12.0°C 39.2°F4.0°C 58% Calm Calm 2.2 mph3.5 kmh 29.23 in989.8 mb 0.00 in0.0 mm 0.00 in0.0 mm 0.00 in0.0 mm
06:02 AM 53.6°F12.0°C 39.2°F4.0°C 58% 0.9 mph ENE1.4 kmh ENE 2.5 mph4.0 kmh 29.23 in989.8 mb 0.00 in0.0 mm 0.00 in0.0 mm 0.00 in0.0 mm
06:01 AM 53.6°F12.0°C 38.8°F3.8°C 57% 2.9 mph ESE4.7 kmh ESE 2.9 mph4.7 kmh 29.23 in989.8 mb 0.00 in0.0 mm 0.00 in0.0 mm 0.00 in0.0 mm
06:00 AM 53.6°F12.0°C 38.8°F3.8°C 57% Calm Calm -- 29.23 in989.8 mb 0.00 in0.0 mm 0.00 in0.0 mm 0.00 in0.0 mm
05:59 AM 53.6°F12.0°C 38.8°F3.8°C 57% Calm Calm -- 29.23 in989.8 mb 0.00 in0.0 mm 0.00 in0.0 mm 0.00 in0.0 mm
05:58 AM 53.6°F12.0°C 38.8°F3.8°C 57% 2.9 mph ENE4.7 kmh ENE 2.9 mph4.7 kmh 29.23 in989.8 mb 0.00 in0.0 mm 0.00 in0.0 mm 0.00 in0.0 mm
05:57 AM 53.6°F12.0°C 38.8°F3.8°C 57% 2.2 mph E3.5 kmh E 2.2 mph3.5 kmh 29.23 in989.8 mb 0.00 in0.0 mm 0.00 in0.0 mm 0.00 in0.0 mm
05:56 AM 53.6°F12.0°C 38.8°F3.8°C 57% 0.9 mph ENE1.4 kmh ENE 2.2 mph3.5 kmh 29.23 in989.8 mb 0.00 in0.0 mm 0.00 in0.0 mm 0.00 in0.0 mm
05:55 AM 53.6°F12.0°C 38.8°F3.8°C 57% 0.9 mph W1.4 kmh W 0.9 mph1.4 kmh 29.23 in989.8 mb 0.00 in0.0 mm 0.00 in0.0 mm 0.00 in0.0 mm
05:54 AM 53.6°F12.0°C 38.8°F3.8°C 57% 0.9 mph SSW1.4 kmh SSW 1.1 mph1.8 kmh 29.23 in989.8 mb 0.00 in0.0 mm 0.00 in0.0 mm 0.00 in0.0 mm
05:52 AM 53.8°F12.1°C 38.9°F3.8°C 57% 2.5 mph ENE4.0 kmh ENE 2.7 mph4.3 kmh 29.23 in989.8 mb 0.00 in0.0 mm 0.00 in0.0 mm 0.00 in0.0 mm
05:51 AM 53.8°F12.1°C 38.9°F3.8°C 57% 3.1 mph NNE5.0 kmh NNE 3.1 mph5.0 kmh 29.23 in989.8 mb 0.00 in0.0 mm 0.00 in0.0 mm 0.00 in0.0 mm
05:50 AM 53.8°F12.1°C 38.9°F3.8°C 57% 1.6 mph ESE2.6 kmh ESE 1.6 mph2.6 kmh 29.23 in989.8 mb 0.00 in0.0 mm 0.00 in0.0 mm 0.00 in0.0 mm
05:48 AM 53.8°F12.1°C 38.5°F3.6°C 56% Calm Calm 1.1 mph1.8 kmh 29.23 in989.8 mb 0.00 in0.0 mm 0.00 in0.0 mm 0.00 in0.0 mm
05:47 AM 53.8°F12.1°C 38.5°F3.6°C 56% 3.4 mph ENE5.5 kmh ENE 3.4 mph5.5 kmh 29.23 in989.8 mb 0.00 in0.0 mm 0.00 in0.0 mm 0.00 in0.0 mm
05:46 AM 54.0°F12.2°C 38.6°F3.7°C 56% 1.6 mph SW2.6 kmh SW 1.6 mph2.6 kmh 29.23 in989.8 mb 0.00 in0.0 mm 0.00 in0.0 mm 0.00 in0.0 mm
05:45 AM 54.0°F12.2°C 38.6°F3.7°C 56% 1.1 mph E1.8 kmh E 2.0 mph3.2 kmh 29.23 in989.8 mb 0.00 in0.0 mm 0.00 in0.0 mm 0.00 in0.0 mm
05:44 AM 54.0°F12.2°C 38.6°F3.7°C 56% 1.1 mph ENE1.8 kmh ENE 1.1 mph1.8 kmh 29.23 in989.8 mb 0.00 in0.0 mm 0.00 in0.0 mm 0.00 in0.0 mm
05:43 AM 54.0°F12.2°C 38.2°F3.4°C 55% 1.6 mph ENE2.6 kmh ENE 2.5 mph4.0 kmh 29.23 in989.8 mb 0.00 in0.0 mm 0.00 in0.0 mm 0.00 in0.0 mm
05:42 AM 54.0°F12.2°C 38.2°F3.4°C 55% Calm Calm 1.1 mph1.8 kmh 29.23 in989.8 mb 0.00 in0.0 mm 0.00 in0.0 mm 0.00 in0.0 mm
05:41 AM 54.0°F12.2°C 38.6°F3.7°C 56% Calm Calm 3.1 mph5.0 kmh 29.23 in989.8 mb 0.00 in0.0 mm 0.00 in0.0 mm 0.00 in0.0 mm
05:40 AM 54.0°F12.2°C 38.2°F3.4°C 55% Calm Calm -- 29.23 in989.8 mb 0.00 in0.0 mm 0.00 in0.0 mm 0.00 in0.0 mm
05:39 AM 54.1°F12.3°C 38.4°F3.6°C 55% 2.7 mph NNE4.3 kmh NNE 3.1 mph5.0 kmh 29.23 in989.8 mb 0.00 in0.0 mm 0.00 in0.0 mm 0.00 in0.0 mm
05:38 AM 54.1°F12.3°C 38.4°F3.6°C 55% Calm Calm 1.1 mph1.8 kmh 29.23 in989.8 mb 0.00 in0.0 mm 0.00 in0.0 mm 0.00 in0.0 mm
05:36 AM 54.1°F12.3°C 38.4°F3.6°C 55% 2.2 mph NNE3.5 kmh NNE 2.2 mph3.5 kmh 29.23 in989.8 mb 0.00 in0.0 mm 0.00 in0.0 mm 0.00 in0.0 mm
05:35 AM 54.1°F12.3°C 38.4°F3.6°C 55% 1.3 mph ENE2.1 kmh ENE 3.8 mph6.1 kmh 29.23 in989.8 mb 0.00 in0.0 mm 0.00 in0.0 mm 0.00 in0.0 mm
05:34 AM 54.1°F12.3°C 38.4°F3.6°C 55% 1.3 mph WSW2.1 kmh WSW 1.3 mph2.1 kmh 29.23 in989.8 mb 0.00 in0.0 mm 0.00 in0.0 mm 0.00 in0.0 mm
05:32 AM 54.3°F12.4°C 38.5°F3.6°C 55% 3.1 mph ESE5.0 kmh ESE 3.1 mph5.0 kmh 29.23 in989.8 mb 0.00 in0.0 mm 0.00 in0.0 mm 0.00 in0.0 mm
05:31 AM 54.3°F12.4°C 38.5°F3.6°C 55% 2.5 mph ENE4.0 kmh ENE 2.5 mph4.0 kmh 29.23 in989.8 mb 0.00 in0.0 mm 0.00 in0.0 mm 0.00 in0.0 mm
05:30 AM 54.3°F12.4°C 38.5°F3.6°C 55% 1.3 mph 2.1 kmh 1.3 mph2.1 kmh 29.23 in989.8 mb 0.00 in0.0 mm 0.00 in0.0 mm 0.00 in0.0 mm
05:29 AM 54.3°F12.4°C 38.0°F3.3°C 54% 1.3 mph NNE2.1 kmh NNE 1.3 mph2.1 kmh 29.23 in989.8 mb 0.00 in0.0 mm 0.00 in0.0 mm 0.00 in0.0 mm
05:28 AM 54.3°F12.4°C 38.0°F3.3°C 54% 2.0 mph ENE3.2 kmh ENE 2.0 mph3.2 kmh 29.23 in989.8 mb 0.00 in0.0 mm 0.00 in0.0 mm 0.00 in0.0 mm
05:27 AM 54.3°F12.4°C 38.0°F3.3°C 54% Calm Calm 0.9 mph1.4 kmh 29.23 in989.8 mb 0.00 in0.0 mm 0.00 in0.0 mm 0.00 in0.0 mm
05:26 AM 54.3°F12.4°C 38.0°F3.3°C 54% Calm Calm -- 29.23 in989.8 mb 0.00 in0.0 mm 0.00 in0.0 mm 0.00 in0.0 mm
05:24 AM 54.3°F12.4°C 38.0°F3.3°C 54% Calm Calm 2.7 mph4.3 kmh 29.23 in989.8 mb 0.00 in0.0 mm 0.00 in0.0 mm 0.00 in0.0 mm
05:23 AM 54.3°F12.4°C 38.0°F3.3°C 54% 2.7 mph W4.3 kmh W 2.7 mph4.3 kmh 29.23 in989.8 mb 0.00 in0.0 mm 0.00 in0.0 mm 0.00 in0.0 mm
05:22 AM 54.3°F12.4°C 38.0°F3.3°C 54% Calm Calm -- 29.23 in989.8 mb 0.00 in0.0 mm 0.00 in0.0 mm 0.00 in0.0 mm
05:21 AM 54.3°F12.4°C 38.0°F3.3°C 54% 0.9 mph WSW1.4 kmh WSW 0.9 mph1.4 kmh 29.23 in989.8 mb 0.00 in0.0 mm 0.00 in0.0 mm 0.00 in0.0 mm
05:20 AM 54.3°F12.4°C 38.0°F3.3°C 54% 2.0 mph ENE3.2 kmh ENE 4.9 mph7.9 kmh 29.23 in989.8 mb 0.00 in0.0 mm 0.00 in0.0 mm 0.00 in0.0 mm
05:19 AM 54.3°F12.4°C 38.0°F3.3°C 54% Calm Calm -- 29.23 in989.8 mb 0.00 in0.0 mm 0.00 in0.0 mm 0.00 in0.0 mm
05:18 AM 54.3°F12.4°C 38.0°F3.3°C 54% Calm Calm 1.1 mph1.8 kmh 29.23 in989.8 mb 0.00 in0.0 mm 0.00 in0.0 mm 0.00 in0.0 mm
05:17 AM 54.3°F12.4°C 37.6°F3.1°C 53% Calm Calm -- 29.23 in989.8 mb 0.00 in0.0 mm 0.00 in0.0 mm 0.00 in0.0 mm
05:16 AM 54.3°F12.4°C 37.6°F3.1°C 53% Calm Calm -- 29.23 in989.8 mb 0.00 in0.0 mm 0.00 in0.0 mm 0.00 in0.0 mm
05:15 AM 54.3°F12.4°C 37.6°F3.1°C 53% Calm Calm 0.9 mph1.4 kmh 29.23 in989.8 mb 0.00 in0.0 mm 0.00 in0.0 mm 0.00 in0.0 mm
05:13 AM 54.3°F12.4°C 37.6°F3.1°C 53% Calm Calm -- 29.23 in989.8 mb 0.00 in0.0 mm 0.00 in0.0 mm 0.00 in0.0 mm
05:12 AM 54.3°F12.4°C 37.6°F3.1°C 53% 2.5 mph ENE4.0 kmh ENE 2.5 mph4.0 kmh 29.23 in989.8 mb 0.00 in0.0 mm 0.00 in0.0 mm 0.00 in0.0 mm
05:10 AM 54.3°F12.4°C 37.6°F3.1°C 53% 0.9 mph SE1.4 kmh SE 2.2 mph3.5 kmh 29.23 in989.8 mb 0.00 in0.0 mm 0.00 in0.0 mm 0.00 in0.0 mm
05:09 AM 54.3°F12.4°C 37.6°F3.1°C 53% 1.1 mph NNE1.8 kmh NNE 1.6 mph2.6 kmh 29.23 in989.8 mb 0.00 in0.0 mm 0.00 in0.0 mm 0.00 in0.0 mm
05:08 AM 54.3°F12.4°C 37.6°F3.1°C 53% Calm Calm -- 29.23 in989.8 mb 0.00 in0.0 mm 0.00 in0.0 mm 0.00 in0.0 mm
05:06 AM 54.5°F12.5°C 37.7°F3.2°C 53% 2.0 mph NNE3.2 kmh NNE 2.0 mph3.2 kmh 29.23 in989.8 mb 0.00 in0.0 mm 0.00 in0.0 mm 0.00 in0.0 mm
05:05 AM 54.5°F12.5°C 37.7°F3.2°C 53% Calm Calm 0.9 mph1.4 kmh 29.23 in989.8 mb 0.00 in0.0 mm 0.00 in0.0 mm 0.00 in0.0 mm
05:03 AM 54.5°F12.5°C 37.7°F3.2°C 53% Calm Calm 2.2 mph3.5 kmh 29.23 in989.8 mb 0.00 in0.0 mm 0.00 in0.0 mm 0.00 in0.0 mm
05:02 AM 54.5°F12.5°C 37.3°F2.9°C 52% 4.9 mph ENE7.9 kmh ENE 4.9 mph7.9 kmh 29.23 in989.8 mb 0.00 in0.0 mm 0.00 in0.0 mm 0.00 in0.0 mm
05:01 AM 54.5°F12.5°C 37.3°F2.9°C 52% 1.1 mph W1.8 kmh W 1.1 mph1.8 kmh 29.23 in989.8 mb 0.00 in0.0 mm 0.00 in0.0 mm 0.00 in0.0 mm
05:00 AM 54.5°F12.5°C 37.3°F2.9°C 52% Calm Calm -- 29.23 in989.8 mb 0.00 in0.0 mm 0.00 in0.0 mm 0.00 in0.0 mm
04:59 AM 54.5°F12.5°C 37.3°F2.9°C 52% Calm Calm -- 29.23 in989.8 mb 0.00 in0.0 mm 0.00 in0.0 mm 0.00 in0.0 mm
04:58 AM 54.7°F12.6°C 37.4°F3.0°C 52% Calm Calm -- 29.23 in989.8 mb 0.00 in0.0 mm 0.00 in0.0 mm 0.00 in0.0 mm
04:57 AM 54.5°F12.5°C 37.3°F2.9°C 52% Calm Calm 1.1 mph1.8 kmh 29.23 in989.8 mb 0.00 in0.0 mm 0.00 in0.0 mm 0.00 in0.0 mm
04:56 AM 54.5°F12.5°C 37.3°F2.9°C 52% Calm Calm -- 29.23 in989.8 mb 0.00 in0.0 mm 0.00 in0.0 mm 0.00 in0.0 mm
04:55 AM 54.7°F12.6°C 37.4°F3.0°C 52% Calm Calm -- 29.23 in989.8 mb 0.00 in0.0 mm 0.00 in0.0 mm 0.00 in0.0 mm
04:53 AM 54.7°F12.6°C 37.4°F3.0°C 52% 0.9 mph NNE1.4 kmh NNE 0.9 mph1.4 kmh 29.23 in989.8 mb 0.00 in0.0 mm 0.00 in0.0 mm 0.00 in0.0 mm
04:52 AM 54.7°F12.6°C 36.9°F2.7°C 51% 3.4 mph ENE5.5 kmh ENE 3.4 mph5.5 kmh 29.23 in989.8 mb 0.00 in0.0 mm 0.00 in0.0 mm 0.00 in0.0 mm
04:51 AM 54.7°F12.6°C 36.9°F2.7°C 51% Calm Calm -- 29.23 in989.8 mb 0.00 in0.0 mm 0.00 in0.0 mm 0.00 in0.0 mm
04:50 AM 54.7°F12.6°C 36.9°F2.7°C 51% 1.1 mph 1.8 kmh 1.1 mph1.8 kmh 29.23 in989.8 mb 0.00 in0.0 mm 0.00 in0.0 mm 0.00 in0.0 mm
04:49 AM 54.7°F12.6°C 36.9°F2.7°C 51% Calm Calm -- 29.23 in989.8 mb 0.00 in0.0 mm 0.00 in0.0 mm 0.00 in0.0 mm
04:48 AM 54.7°F12.6°C 36.4°F2.4°C 50% 0.9 mph NNE1.4 kmh NNE 1.1 mph1.8 kmh 29.23 in989.8 mb 0.00 in0.0 mm 0.00 in0.0 mm 0.00 in0.0 mm
04:47 AM 54.7°F12.6°C 36.4°F2.4°C 50% Calm Calm 2.7 mph4.3 kmh 29.23 in989.8 mb 0.00 in0.0 mm 0.00 in0.0 mm 0.00 in0.0 mm
04:46 AM 54.7°F12.6°C 36.4°F2.4°C 50% Calm Calm -- 29.23 in989.8 mb 0.00 in0.0 mm 0.00 in0.0 mm 0.00 in0.0 mm
04:44 AM 54.7°F12.6°C 36.4°F2.4°C 50% Calm Calm -- 29.23 in989.8 mb 0.00 in0.0 mm 0.00 in0.0 mm 0.00 in0.0 mm
04:43 AM 54.9°F12.7°C 36.6°F2.6°C 50% Calm Calm -- 29.23 in989.8 mb 0.00 in0.0 mm 0.00 in0.0 mm 0.00 in0.0 mm
04:42 AM 54.9°F12.7°C 36.6°F2.6°C 50% Calm Calm -- 29.23 in989.8 mb 0.00 in0.0 mm 0.00 in0.0 mm 0.00 in0.0 mm
04:41 AM 54.9°F12.7°C 36.6°F2.6°C 50% 2.0 mph ENE3.2 kmh ENE 2.0 mph3.2 kmh 29.23 in989.8 mb 0.00 in0.0 mm 0.00 in0.0 mm 0.00 in0.0 mm
04:40 AM 54.9°F12.7°C 36.6°F2.6°C 50% 2.0 mph ENE3.2 kmh ENE 2.0 mph3.2 kmh 29.23 in989.8 mb 0.00 in0.0 mm 0.00 in0.0 mm 0.00 in0.0 mm
04:39 AM 54.9°F12.7°C 36.6°F2.6°C 50% Calm Calm 2.0 mph3.2 kmh 29.23 in989.8 mb 0.00 in0.0 mm 0.00 in0.0 mm 0.00 in0.0 mm
04:38 AM 54.9°F12.7°C 36.1°F2.3°C 49% Calm Calm 0.9 mph1.4 kmh 29.23 in989.8 mb 0.00 in0.0 mm 0.00 in0.0 mm 0.00 in0.0 mm
04:37 AM 55.0°F12.8°C 36.3°F2.4°C 49% 2.2 mph ENE3.5 kmh ENE 2.2 mph3.5 kmh 29.23 in989.8 mb 0.00 in0.0 mm 0.00 in0.0 mm 0.00 in0.0 mm
04:36 AM 55.0°F12.8°C 36.3°F2.4°C 49% Calm Calm -- 29.23 in989.8 mb 0.00 in0.0 mm 0.00 in0.0 mm 0.00 in0.0 mm
04:35 AM 55.0°F12.8°C 36.3°F2.4°C 49% Calm Calm -- 29.23 in989.8 mb 0.00 in0.0 mm 0.00 in0.0 mm 0.00 in0.0 mm
04:34 AM 55.0°F12.8°C 36.3°F2.4°C 49% Calm Calm 0.9 mph1.4 kmh 29.23 in989.8 mb 0.00 in0.0 mm 0.00 in0.0 mm 0.00 in0.0 mm
04:33 AM 55.2°F12.9°C 36.4°F2.4°C 49% Calm Calm -- 29.23 in989.8 mb 0.00 in0.0 mm 0.00 in0.0 mm 0.00 in0.0 mm
04:31 AM 55.2°F12.9°C 36.4°F2.4°C 49% 3.4 mph NE5.5 kmh NE 3.4 mph5.5 kmh 29.23 in989.8 mb 0.00 in0.0 mm 0.00 in0.0 mm 0.00 in0.0 mm
04:30 AM 55.2°F12.9°C 36.4°F2.4°C 49% Calm Calm 1.1 mph1.8 kmh 29.23 in989.8 mb 0.00 in0.0 mm 0.00 in0.0 mm 0.00 in0.0 mm
04:29 AM 55.2°F12.9°C 35.9°F2.2°C 48% 2.0 mph WSW3.2 kmh WSW 2.9 mph4.7 kmh 29.23 in989.8 mb 0.00 in0.0 mm 0.00 in0.0 mm 0.00 in0.0 mm
04:27 AM 55.4°F13.0°C 35.5°F1.9°C 47% Calm Calm -- 29.23 in989.8 mb 0.00 in0.0 mm 0.00 in0.0 mm 0.00 in0.0 mm
04:26 AM 55.4°F13.0°C 36.1°F2.3°C 48% Calm Calm -- 29.23 in989.8 mb 0.00 in0.0 mm 0.00 in0.0 mm 0.00 in0.0 mm
04:25 AM 55.4°F13.0°C 35.5°F1.9°C 47% Calm Calm -- 29.23 in989.8 mb 0.00 in0.0 mm 0.00 in0.0 mm 0.00 in0.0 mm
04:24 AM 55.4°F13.0°C 35.5°F1.9°C 47% Calm Calm -- 29.23 in989.8 mb 0.00 in0.0 mm 0.00 in0.0 mm 0.00 in0.0 mm
04:23 AM 55.6°F13.1°C 35.7°F2.1°C 47% Calm Calm -- 29.23 in989.8 mb 0.00 in0.0 mm 0.00 in0.0 mm 0.00 in0.0 mm
04:22 AM 55.6°F13.1°C 35.7°F2.1°C 47% Calm Calm -- 29.23 in989.8 mb 0.00 in0.0 mm 0.00 in0.0 mm 0.00 in0.0 mm
04:21 AM 55.6°F13.1°C 35.7°F2.1°C 47% Calm Calm -- 29.23 in989.8 mb 0.00 in0.0 mm 0.00 in0.0 mm 0.00 in0.0 mm
04:20 AM 55.8°F13.2°C 35.9°F2.2°C 47% 1.1 mph SSE1.8 kmh SSE 1.6 mph2.6 kmh 29.23 in989.8 mb 0.00 in0.0 mm 0.00 in0.0 mm 0.00 in0.0 mm
04:19 AM 55.8°F13.2°C 35.3°F1.8°C 46% 3.1 mph NNE5.0 kmh NNE 3.1 mph5.0 kmh 29.23 in989.8 mb 0.00 in0.0 mm 0.00 in0.0 mm 0.00 in0.0 mm
04:18 AM 55.8°F13.2°C 35.9°F2.2°C 47% 0.9 mph E1.4 kmh E 0.9 mph1.4 kmh 29.23 in989.8 mb 0.00 in0.0 mm 0.00 in0.0 mm 0.00 in0.0 mm
04:17 AM 55.9°F13.3°C 35.5°F1.9°C 46% 2.2 mph W3.5 kmh W 2.2 mph3.5 kmh 29.23 in989.8 mb 0.00 in0.0 mm 0.00 in0.0 mm 0.00 in0.0 mm
04:16 AM 55.9°F13.3°C 35.5°F1.9°C 46% Calm Calm 1.3 mph2.1 kmh 29.23 in989.8 mb 0.00 in0.0 mm 0.00 in0.0 mm 0.00 in0.0 mm
04:15 AM 55.9°F13.3°C 35.5°F1.9°C 46% 2.2 mph NNE3.5 kmh NNE 2.2 mph3.5 kmh 29.23 in989.8 mb 0.00 in0.0 mm 0.00 in0.0 mm 0.00 in0.0 mm
04:13 AM 56.1°F13.4°C 35.6°F2.0°C 46% Calm Calm 2.0 mph3.2 kmh 29.23 in989.8 mb 0.00 in0.0 mm 0.00 in0.0 mm 0.00 in0.0 mm
04:12 AM 56.3°F13.5°C 35.8°F2.1°C 46% 1.3 mph NNE2.1 kmh NNE 1.3 mph2.1 kmh 29.23 in989.8 mb 0.00 in0.0 mm 0.00 in0.0 mm 0.00 in0.0 mm
04:11 AM 56.3°F13.5°C 35.8°F2.1°C 46% 1.3 mph 2.1 kmh 1.6 mph2.6 kmh 29.23 in989.8 mb 0.00 in0.0 mm 0.00 in0.0 mm 0.00 in0.0 mm
04:10 AM 56.3°F13.5°C 35.8°F2.1°C 46% Calm Calm -- 29.23 in989.8 mb 0.00 in0.0 mm 0.00 in0.0 mm 0.00 in0.0 mm
04:09 AM 56.3°F13.5°C 35.8°F2.1°C 46% 1.3 mph SSW2.1 kmh SSW 1.3 mph2.1 kmh 29.23 in989.8 mb 0.00 in0.0 mm 0.00 in0.0 mm 0.00 in0.0 mm
04:08 AM 56.5°F13.6°C 36.0°F2.2°C 46% Calm Calm -- 29.23 in989.8 mb 0.00 in0.0 mm 0.00 in0.0 mm 0.00 in0.0 mm
04:07 AM 56.5°F13.6°C 35.4°F1.9°C 45% Calm Calm 1.6 mph2.6 kmh 29.23 in989.8 mb 0.00 in0.0 mm 0.00 in0.0 mm 0.00 in0.0 mm
04:06 AM 56.7°F13.7°C 35.6°F2.0°C 45% Calm Calm -- 29.23 in989.8 mb 0.00 in0.0 mm 0.00 in0.0 mm 0.00 in0.0 mm
04:05 AM 56.7°F13.7°C 35.6°F2.0°C 45% 2.2 mph WSW3.5 kmh WSW 2.7 mph4.3 kmh 29.23 in989.8 mb 0.00 in0.0 mm 0.00 in0.0 mm 0.00 in0.0 mm
04:04 AM 56.7°F13.7°C 35.6°F2.0°C 45% 0.9 mph SSW1.4 kmh SSW 0.9 mph1.4 kmh 29.23 in989.8 mb 0.00 in0.0 mm 0.00 in0.0 mm 0.00 in0.0 mm
04:03 AM 56.7°F13.7°C 35.6°F2.0°C 45% Calm Calm -- 29.23 in989.8 mb 0.00 in0.0 mm 0.00 in0.0 mm 0.00 in0.0 mm
04:02 AM 56.7°F13.7°C 35.6°F2.0°C 45% Calm Calm -- 29.23 in989.8 mb 0.00 in0.0 mm 0.00 in0.0 mm 0.00 in0.0 mm
04:01 AM 56.7°F13.7°C 35.6°F2.0°C 45% 1.6 mph SSE2.6 kmh SSE 1.6 mph2.6 kmh 29.23 in989.8 mb 0.00 in0.0 mm 0.00 in0.0 mm 0.00 in0.0 mm
04:00 AM 56.7°F13.7°C 35.6°F2.0°C 45% Calm Calm 2.2 mph3.5 kmh 29.23 in989.8 mb 0.00 in0.0 mm 0.00 in0.0 mm 0.00 in0.0 mm
03:59 AM 56.8°F13.8°C 35.7°F2.1°C 45% Calm Calm -- 29.23 in989.8 mb 0.00 in0.0 mm 0.00 in0.0 mm 0.00 in0.0 mm
03:58 AM 56.8°F13.8°C 35.2°F1.8°C 44% Calm Calm -- 29.23 in989.8 mb 0.00 in0.0 mm 0.00 in0.0 mm 0.00 in0.0 mm
03:57 AM 56.8°F13.8°C 35.2°F1.8°C 44% Calm Calm -- 29.23 in989.8 mb 0.00 in0.0 mm 0.00 in0.0 mm 0.00 in0.0 mm
03:56 AM 56.8°F13.8°C 35.2°F1.8°C 44% Calm Calm -- 29.23 in989.8 mb 0.00 in0.0 mm 0.00 in0.0 mm 0.00 in0.0 mm
03:55 AM 56.8°F13.8°C 35.7°F2.1°C 45% Calm Calm -- 29.23 in989.8 mb 0.00 in0.0 mm 0.00 in0.0 mm 0.00 in0.0 mm
03:54 AM 56.8°F13.8°C 35.2°F1.8°C 44% Calm Calm -- 29.23 in989.8 mb 0.00 in0.0 mm 0.00 in0.0 mm 0.00 in0.0 mm
03:53 AM 56.8°F13.8°C 35.7°F2.1°C 45% 2.2 mph NNE3.5 kmh NNE 2.2 mph3.5 kmh 29.23 in989.8 mb 0.00 in0.0 mm 0.00 in0.0 mm 0.00 in0.0 mm
03:52 AM 56.8°F13.8°C 35.7°F2.1°C 45% Calm Calm -- 29.23 in989.8 mb 0.00 in0.0 mm 0.00 in0.0 mm 0.00 in0.0 mm
03:51 AM 56.8°F13.8°C 35.7°F2.1°C 45% Calm Calm -- 29.23 in989.8 mb 0.00 in0.0 mm 0.00 in0.0 mm 0.00 in0.0 mm
03:50 AM 56.8°F13.8°C 35.7°F2.1°C 45% Calm Calm -- 29.23 in989.8 mb 0.00 in0.0 mm 0.00 in0.0 mm 0.00 in0.0 mm
03:48 AM 56.8°F13.8°C 35.7°F2.1°C 45% 0.9 mph SSW1.4 kmh SSW 0.9 mph1.4 kmh 29.23 in989.8 mb 0.00 in0.0 mm 0.00 in0.0 mm 0.00 in0.0 mm
03:47 AM 56.8°F13.8°C 35.7°F2.1°C 45% Calm Calm -- 29.23 in989.8 mb 0.00 in0.0 mm 0.00 in0.0 mm 0.00 in0.0 mm
03:46 AM 56.8°F13.8°C 35.7°F2.1°C 45% Calm Calm -- 29.23 in989.8 mb 0.00 in0.0 mm 0.00 in0.0 mm 0.00 in0.0 mm
03:45 AM 56.8°F13.8°C 35.7°F2.1°C 45% 1.3 mph SE2.1 kmh SE 1.3 mph2.1 kmh 29.23 in989.8 mb 0.00 in0.0 mm 0.00 in0.0 mm 0.00 in0.0 mm
03:44 AM 56.8°F13.8°C 35.7°F2.1°C 45% Calm Calm -- 29.23 in989.8 mb 0.00 in0.0 mm 0.00 in0.0 mm 0.00 in0.0 mm
03:43 AM 56.8°F13.8°C 35.7°F2.1°C 45% Calm Calm -- 29.23 in989.8 mb 0.00 in0.0 mm 0.00 in0.0 mm 0.00 in0.0 mm
03:41 AM 56.8°F13.8°C 35.7°F2.1°C 45% 1.1 mph NE1.8 kmh NE 1.1 mph1.8 kmh 29.23 in989.8 mb 0.00 in0.0 mm 0.00 in0.0 mm 0.00 in0.0 mm
03:40 AM 56.8°F13.8°C 35.7°F2.1°C 45% Calm Calm -- 29.23 in989.8 mb 0.00 in0.0 mm 0.00 in0.0 mm 0.00 in0.0 mm
03:39 AM 56.8°F13.8°C 35.7°F2.1°C 45% Calm Calm -- 29.23 in989.8 mb 0.00 in0.0 mm 0.00 in0.0 mm 0.00 in0.0 mm
03:38 AM 56.8°F13.8°C 35.7°F2.1°C 45% Calm Calm -- 29.23 in989.8 mb 0.00 in0.0 mm 0.00 in0.0 mm 0.00 in0.0 mm
03:37 AM 56.8°F13.8°C 35.7°F2.1°C 45% Calm Calm -- 29.23 in989.8 mb 0.00 in0.0 mm 0.00 in0.0 mm 0.00 in0.0 mm
03:36 AM 56.8°F13.8°C 35.7°F2.1°C 45% Calm Calm -- 29.23 in989.8 mb 0.00 in0.0 mm 0.00 in0.0 mm 0.00 in0.0 mm
03:35 AM 56.8°F13.8°C 35.7°F2.1°C 45% Calm Calm -- 29.23 in989.8 mb 0.00 in0.0 mm 0.00 in0.0 mm 0.00 in0.0 mm
03:34 AM 56.8°F13.8°C 35.7°F2.1°C 45% Calm Calm -- 29.23 in989.8 mb 0.00 in0.0 mm 0.00 in0.0 mm 0.00 in0.0 mm
03:33 AM 56.8°F13.8°C 35.7°F2.1°C 45% 0.9 mph W1.4 kmh W 0.9 mph1.4 kmh 29.23 in989.8 mb 0.00 in0.0 mm 0.00 in0.0 mm 0.00 in0.0 mm
03:32 AM 56.8°F13.8°C 35.7°F2.1°C 45% Calm Calm -- 29.23 in989.8 mb 0.00 in0.0 mm 0.00 in0.0 mm 0.00 in0.0 mm
03:31 AM 56.8°F13.8°C 35.2°F1.8°C 44% Calm Calm -- 29.23 in989.8 mb 0.00 in0.0 mm 0.00 in0.0 mm 0.00 in0.0 mm
03:30 AM 56.8°F13.8°C 35.2°F1.8°C 44% 0.9 mph NNE1.4 kmh NNE 0.9 mph1.4 kmh 29.23 in989.8 mb 0.00 in0.0 mm 0.00 in0.0 mm 0.00 in0.0 mm
03:29 AM 56.8°F13.8°C 35.2°F1.8°C 44% 0.9 mph SSE1.4 kmh SSE 0.9 mph1.4 kmh 29.23 in989.8 mb 0.00 in0.0 mm 0.00 in0.0 mm 0.00 in0.0 mm
03:28 AM 56.8°F13.8°C 35.2°F1.8°C 44% 1.3 mph SSW2.1 kmh SSW 1.3 mph2.1 kmh 29.23 in989.8 mb 0.00 in0.0 mm 0.00 in0.0 mm 0.00 in0.0 mm
03:27 AM 56.8°F13.8°C 35.2°F1.8°C 44% 0.9 mph WSW1.4 kmh WSW 1.6 mph2.6 kmh 29.23 in989.8 mb 0.00 in0.0 mm 0.00 in0.0 mm 0.00 in0.0 mm
03:26 AM 56.8°F13.8°C 35.2°F1.8°C 44% Calm Calm 2.2 mph3.5 kmh 29.23 in989.8 mb 0.00 in0.0 mm 0.00 in0.0 mm 0.00 in0.0 mm
03:25 AM 56.8°F13.8°C 35.2°F1.8°C 44% Calm Calm -- 29.23 in989.8 mb 0.00 in0.0 mm 0.00 in0.0 mm 0.00 in0.0 mm
03:24 AM 56.8°F13.8°C 35.2°F1.8°C 44% Calm Calm -- 29.23 in989.8 mb 0.00 in0.0 mm 0.00 in0.0 mm 0.00 in0.0 mm
03:22 AM 56.8°F13.8°C 35.2°F1.8°C 44% Calm Calm -- 29.23 in989.8 mb 0.00 in0.0 mm 0.00 in0.0 mm 0.00 in0.0 mm
03:21 AM 56.8°F13.8°C 35.2°F1.8°C 44% Calm Calm -- 29.23 in989.8 mb 0.00 in0.0 mm 0.00 in0.0 mm 0.00 in0.0 mm
03:20 AM 56.8°F13.8°C 34.6°F1.4°C 43% Calm Calm 2.7 mph4.3 kmh 29.23 in989.8 mb 0.00 in0.0 mm 0.00 in0.0 mm 0.00 in0.0 mm
03:19 AM 57.0°F13.9°C 34.8°F1.6°C 43% 2.5 mph NNE4.0 kmh NNE 2.5 mph4.0 kmh 29.23 in989.8 mb 0.00 in0.0 mm 0.00 in0.0 mm 0.00 in0.0 mm
03:17 AM 57.0°F13.9°C 34.8°F1.6°C 43% Calm Calm -- 29.23 in989.8 mb 0.00 in0.0 mm 0.00 in0.0 mm 0.00 in0.0 mm
03:16 AM 57.0°F13.9°C 34.8°F1.6°C 43% 0.9 mph NNE1.4 kmh NNE 0.9 mph1.4 kmh 29.23 in989.8 mb 0.00 in0.0 mm 0.00 in0.0 mm 0.00 in0.0 mm
03:15 AM 57.0°F13.9°C 34.8°F1.6°C 43% Calm Calm -- 29.23 in989.8 mb 0.00 in0.0 mm 0.00 in0.0 mm 0.00 in0.0 mm
03:14 AM 57.0°F13.9°C 34.8°F1.6°C 43% Calm Calm -- 29.23 in989.8 mb 0.00 in0.0 mm 0.00 in0.0 mm 0.00 in0.0 mm
03:13 AM 57.0°F13.9°C 34.8°F1.6°C 43% Calm Calm -- 29.23 in989.8 mb 0.00 in0.0 mm 0.00 in0.0 mm 0.00 in0.0 mm
03:12 AM 57.0°F13.9°C 34.8°F1.6°C 43% 1.6 mph NE2.6 kmh NE 1.6 mph2.6 kmh 29.23 in989.8 mb 0.00 in0.0 mm 0.00 in0.0 mm 0.00 in0.0 mm
03:10 AM 57.0°F13.9°C 34.8°F1.6°C 43% Calm Calm -- 29.23 in989.8 mb 0.00 in0.0 mm 0.00 in0.0 mm 0.00 in0.0 mm
03:09 AM 57.0°F13.9°C 34.8°F1.6°C 43% Calm Calm -- 29.23 in989.8 mb 0.00 in0.0 mm 0.00 in0.0 mm 0.00 in0.0 mm
03:08 AM 57.0°F13.9°C 34.8°F1.6°C 43% Calm Calm -- 29.23 in989.8 mb 0.00 in0.0 mm 0.00 in0.0 mm 0.00 in0.0 mm
03:07 AM 57.0°F13.9°C 34.8°F1.6°C 43% Calm Calm -- 29.23 in989.8 mb 0.00 in0.0 mm 0.00 in0.0 mm 0.00 in0.0 mm
03:06 AM 57.0°F13.9°C 34.8°F1.6°C 43% Calm Calm -- 29.23 in989.8 mb 0.00 in0.0 mm 0.00 in0.0 mm 0.00 in0.0 mm
03:05 AM 57.0°F13.9°C 34.8°F1.6°C 43% Calm Calm -- 29.23 in989.8 mb 0.00 in0.0 mm 0.00 in0.0 mm 0.00 in0.0 mm
03:04 AM 56.8°F13.8°C 34.6°F1.4°C 43% Calm Calm -- 29.23 in989.8 mb 0.00 in0.0 mm 0.00 in0.0 mm 0.00 in0.0 mm
03:03 AM 56.8°F13.8°C 34.6°F1.4°C 43% Calm Calm -- 29.23 in989.8 mb 0.00 in0.0 mm 0.00 in0.0 mm 0.00 in0.0 mm
03:01 AM 56.8°F13.8°C 34.6°F1.4°C 43% 0.9 mph W1.4 kmh W 1.6 mph2.6 kmh 29.23 in989.8 mb 0.00 in0.0 mm 0.00 in0.0 mm 0.00 in0.0 mm
03:00 AM 56.8°F13.8°C 34.6°F1.4°C 43% Calm Calm -- 29.23 in989.8 mb 0.00 in0.0 mm 0.00 in0.0 mm 0.00 in0.0 mm
02:59 AM 56.8°F13.8°C 34.6°F1.4°C 43% Calm Calm -- 29.23 in989.8 mb 0.00 in0.0 mm 0.00 in0.0 mm 0.00 in0.0 mm
02:57 AM 56.8°F13.8°C 34.6°F1.4°C 43% Calm Calm 0.9 mph1.4 kmh 29.23 in989.8 mb 0.00 in0.0 mm 0.00 in0.0 mm 0.00 in0.0 mm
02:56 AM 56.8°F13.8°C 34.6°F1.4°C 43% Calm Calm -- 29.23 in989.8 mb 0.00 in0.0 mm 0.00 in0.0 mm 0.00 in0.0 mm
02:55 AM 56.8°F13.8°C 34.6°F1.4°C 43% Calm Calm -- 29.23 in989.8 mb 0.00 in0.0 mm 0.00 in0.0 mm 0.00 in0.0 mm
02:54 AM 56.8°F13.8°C 34.6°F1.4°C 43% Calm Calm -- 29.23 in989.8 mb 0.00 in0.0 mm 0.00 in0.0 mm 0.00 in0.0 mm
02:52 AM 56.8°F13.8°C 34.0°F1.1°C 42% Calm Calm -- 29.23 in989.8 mb 0.00 in0.0 mm 0.00 in0.0 mm 0.00 in0.0 mm
02:51 AM 56.8°F13.8°C 34.0°F1.1°C 42% Calm Calm -- 29.23 in989.8 mb 0.00 in0.0 mm 0.00 in0.0 mm 0.00 in0.0 mm
02:50 AM 56.8°F13.8°C 34.0°F1.1°C 42% Calm Calm -- 29.23 in989.8 mb 0.00 in0.0 mm 0.00 in0.0 mm 0.00 in0.0 mm
02:49 AM 56.8°F13.8°C 34.0°F1.1°C 42% Calm Calm -- 29.23 in989.8 mb 0.00 in0.0 mm 0.00 in0.0 mm 0.00 in0.0 mm
02:48 AM 56.8°F13.8°C 34.0°F1.1°C 42% Calm Calm -- 29.23 in989.8 mb 0.00 in0.0 mm 0.00 in0.0 mm 0.00 in0.0 mm
02:47 AM 56.8°F13.8°C 34.0°F1.1°C 42% Calm Calm -- 29.23 in989.8 mb 0.00 in0.0 mm 0.00 in0.0 mm 0.00 in0.0 mm
02:46 AM 56.8°F13.8°C 34.0°F1.1°C 42% Calm Calm -- 29.23 in989.8 mb 0.00 in0.0 mm 0.00 in0.0 mm 0.00 in0.0 mm
02:45 AM 56.8°F13.8°C 34.0°F1.1°C 42% Calm Calm -- 29.26 in990.9 mb 0.00 in0.0 mm 0.00 in0.0 mm 0.00 in0.0 mm
02:44 AM 56.8°F13.8°C 34.0°F1.1°C 42% Calm Calm -- 29.26 in990.9 mb 0.00 in0.0 mm 0.00 in0.0 mm 0.00 in0.0 mm
02:43 AM 56.8°F13.8°C 34.0°F1.1°C 42% Calm Calm -- 29.26 in990.9 mb 0.00 in0.0 mm 0.00 in0.0 mm 0.00 in0.0 mm
02:42 AM 56.8°F13.8°C 34.0°F1.1°C 42% Calm Calm 1.6 mph2.6 kmh 29.26 in990.9 mb 0.00 in0.0 mm 0.00 in0.0 mm 0.00 in0.0 mm
02:41 AM 56.8°F13.8°C 34.0°F1.1°C 42% 0.9 mph NNE1.4 kmh NNE 0.9 mph1.4 kmh 29.26 in990.9 mb 0.00 in0.0 mm 0.00 in0.0 mm 0.00 in0.0 mm
02:39 AM 56.8°F13.8°C 33.4°F0.8°C 41% Calm Calm 0.9 mph1.4 kmh 29.26 in990.9 mb 0.00 in0.0 mm 0.00 in0.0 mm 0.00 in0.0 mm
02:38 AM 56.8°F13.8°C 33.4°F0.8°C 41% 1.3 mph NNE2.1 kmh NNE 1.3 mph2.1 kmh 29.26 in990.9 mb 0.00 in0.0 mm 0.00 in0.0 mm 0.00 in0.0 mm
02:37 AM 56.8°F13.8°C 33.4°F0.8°C 41% Calm Calm -- 29.26 in990.9 mb 0.00 in0.0 mm 0.00 in0.0 mm 0.00 in0.0 mm
02:36 AM 56.8°F13.8°C 33.4°F0.8°C 41% 1.1 mph ESE1.8 kmh ESE 1.1 mph1.8 kmh 29.26 in990.9 mb 0.00 in0.0 mm 0.00 in0.0 mm 0.00 in0.0 mm
02:35 AM 56.8°F13.8°C 33.4°F0.8°C 41% Calm Calm -- 29.26 in990.9 mb 0.00 in0.0 mm 0.00 in0.0 mm 0.00 in0.0 mm
02:34 AM 57.0°F13.9°C 33.6°F0.9°C 41% Calm Calm -- 29.26 in990.9 mb 0.00 in0.0 mm 0.00 in0.0 mm 0.00 in0.0 mm
02:33 AM 57.0°F13.9°C 33.6°F0.9°C 41% Calm Calm -- 29.26 in990.9 mb 0.00 in0.0 mm 0.00 in0.0 mm 0.00 in0.0 mm
02:32 AM 57.0°F13.9°C 33.6°F0.9°C 41% Calm Calm -- 29.26 in990.9 mb 0.00 in0.0 mm 0.00 in0.0 mm 0.00 in0.0 mm
02:31 AM 57.0°F13.9°C 33.0°F0.6°C 40% 1.1 mph ESE1.8 kmh ESE 2.0 mph3.2 kmh 29.26 in990.9 mb 0.00 in0.0 mm 0.00 in0.0 mm 0.00 in0.0 mm
02:30 AM 57.0°F13.9°C 33.0°F0.6°C 40% Calm Calm -- 29.26 in990.9 mb 0.00 in0.0 mm 0.00 in0.0 mm 0.00 in0.0 mm
02:29 AM 57.0°F13.9°C 33.0°F0.6°C 40% Calm Calm -- 29.26 in990.9 mb 0.00 in0.0 mm 0.00 in0.0 mm 0.00 in0.0 mm
02:28 AM 57.0°F13.9°C 33.0°F0.6°C 40% Calm Calm -- 29.26 in990.9 mb 0.00 in0.0 mm 0.00 in0.0 mm 0.00 in0.0 mm
02:27 AM 57.0°F13.9°C 33.0°F0.6°C 40% Calm Calm -- 29.26 in990.9 mb 0.00 in0.0 mm 0.00 in0.0 mm 0.00 in0.0 mm
02:26 AM 57.0°F13.9°C 33.0°F0.6°C 40% Calm Calm -- 29.26 in990.9 mb 0.00 in0.0 mm 0.00 in0.0 mm 0.00 in0.0 mm
02:25 AM 57.0°F13.9°C 33.0°F0.6°C 40% Calm Calm -- 29.26 in990.9 mb 0.00 in0.0 mm 0.00 in0.0 mm 0.00 in0.0 mm
02:24 AM 57.0°F13.9°C 33.0°F0.6°C 40% Calm Calm -- 29.26 in990.9 mb 0.00 in0.0 mm 0.00 in0.0 mm 0.00 in0.0 mm
02:23 AM 57.0°F13.9°C 33.0°F0.6°C 40% Calm Calm -- 29.26 in990.9 mb 0.00 in0.0 mm 0.00 in0.0 mm 0.00 in0.0 mm
02:22 AM 57.0°F13.9°C 33.0°F0.6°C 40% Calm Calm -- 29.26 in990.9 mb 0.00 in0.0 mm 0.00 in0.0 mm 0.00 in0.0 mm
02:21 AM 57.0°F13.9°C 33.0°F0.6°C 40% 1.3 mph W2.1 kmh W 1.3 mph2.1 kmh 29.26 in990.9 mb 0.00 in0.0 mm 0.00 in0.0 mm 0.00 in0.0 mm
02:20 AM 57.0°F13.9°C 33.0°F0.6°C 40% Calm Calm -- 29.26 in990.9 mb 0.00 in0.0 mm 0.00 in0.0 mm 0.00 in0.0 mm
02:19 AM 57.0°F13.9°C 33.0°F0.6°C 40% Calm Calm 2.5 mph4.0 kmh 29.26 in990.9 mb 0.00 in0.0 mm 0.00 in0.0 mm 0.00 in0.0 mm
02:18 AM 57.0°F13.9°C 33.0°F0.6°C 40% 2.5 mph ENE4.0 kmh ENE 2.5 mph4.0 kmh 29.26 in990.9 mb 0.00 in0.0 mm 0.00 in0.0 mm 0.00 in0.0 mm
02:17 AM 57.0°F13.9°C 33.0°F0.6°C 40% Calm Calm -- 29.26 in990.9 mb 0.00 in0.0 mm 0.00 in0.0 mm 0.00 in0.0 mm
02:16 AM 57.0°F13.9°C 33.0°F0.6°C 40% Calm Calm -- 29.26 in990.9 mb 0.00 in0.0 mm 0.00 in0.0 mm 0.00 in0.0 mm
02:14 AM 57.0°F13.9°C 33.0°F0.6°C 40% Calm Calm -- 29.26 in990.9 mb 0.00 in0.0 mm 0.00 in0.0 mm 0.00 in0.0 mm
02:13 AM 57.0°F13.9°C 33.0°F0.6°C 40% Calm Calm -- 29.26 in990.9 mb 0.00 in0.0 mm 0.00 in0.0 mm 0.00 in0.0 mm
02:12 AM 57.0°F13.9°C 33.0°F0.6°C 40% Calm Calm -- 29.26 in990.9 mb 0.00 in0.0 mm 0.00 in0.0 mm 0.00 in0.0 mm
02:11 AM 57.0°F13.9°C 33.0°F0.6°C 40% 2.9 mph NNE4.7 kmh NNE 2.9 mph4.7 kmh 29.26 in990.9 mb 0.00 in0.0 mm 0.00 in0.0 mm 0.00 in0.0 mm
02:10 AM 57.0°F13.9°C 33.0°F0.6°C 40% 3.6 mph ESE5.8 kmh ESE 3.6 mph5.8 kmh 29.26 in990.9 mb 0.00 in0.0 mm 0.00 in0.0 mm 0.00 in0.0 mm
02:09 AM 57.0°F13.9°C 32.3°F0.2°C 39% 1.6 mph ENE2.6 kmh ENE 1.6 mph2.6 kmh 29.26 in990.9 mb 0.00 in0.0 mm 0.00 in0.0 mm 0.00 in0.0 mm
02:08 AM 57.0°F13.9°C 33.0°F0.6°C 40% 2.5 mph SSE4.0 kmh SSE 2.7 mph4.3 kmh 29.26 in990.9 mb 0.00 in0.0 mm 0.00 in0.0 mm 0.00 in0.0 mm
02:07 AM 57.0°F13.9°C 32.3°F0.2°C 39% Calm Calm -- 29.26 in990.9 mb 0.00 in0.0 mm 0.00 in0.0 mm 0.00 in0.0 mm
02:06 AM 57.0°F13.9°C 32.3°F0.2°C 39% 1.1 mph 1.8 kmh 2.2 mph3.5 kmh 29.26 in990.9 mb 0.00 in0.0 mm 0.00 in0.0 mm 0.00 in0.0 mm
02:05 AM 57.0°F13.9°C 32.3°F0.2°C 39% 1.3 mph 2.1 kmh 1.3 mph2.1 kmh 29.26 in990.9 mb 0.00 in0.0 mm 0.00 in0.0 mm 0.00 in0.0 mm
02:04 AM 57.0°F13.9°C 32.3°F0.2°C 39% Calm Calm 0.9 mph1.4 kmh 29.26 in990.9 mb 0.00 in0.0 mm 0.00 in0.0 mm 0.00 in0.0 mm
02:03 AM 57.0°F13.9°C 32.3°F0.2°C 39% 2.7 mph NNE4.3 kmh NNE 2.7 mph4.3 kmh 29.26 in990.9 mb 0.00 in0.0 mm 0.00 in0.0 mm 0.00 in0.0 mm
02:02 AM 57.0°F13.9°C 32.3°F0.2°C 39% 2.0 mph SE3.2 kmh SE 2.0 mph3.2 kmh 29.26 in990.9 mb 0.00 in0.0 mm 0.00 in0.0 mm 0.00 in0.0 mm
02:01 AM 57.0°F13.9°C 32.3°F0.2°C 39% Calm Calm -- 29.26 in990.9 mb 0.00 in0.0 mm 0.00 in0.0 mm 0.00 in0.0 mm
02:00 AM 57.0°F13.9°C 32.3°F0.2°C 39% Calm Calm -- 29.26 in990.9 mb 0.00 in0.0 mm 0.00 in0.0 mm 0.00 in0.0 mm
01:59 AM 57.0°F13.9°C 32.3°F0.2°C 39% Calm Calm -- 29.26 in990.9 mb 0.00 in0.0 mm 0.00 in0.0 mm 0.00 in0.0 mm
01:58 AM 57.0°F13.9°C 32.3°F0.2°C 39% 1.1 mph ENE1.8 kmh ENE 1.1 mph1.8 kmh 29.26 in990.9 mb 0.00 in0.0 mm 0.00 in0.0 mm 0.00 in0.0 mm
01:57 AM 57.0°F13.9°C 32.3°F0.2°C 39% Calm Calm -- 29.26 in990.9 mb 0.00 in0.0 mm 0.00 in0.0 mm 0.00 in0.0 mm
01:56 AM 57.0°F13.9°C 32.3°F0.2°C 39% 0.9 mph NNE1.4 kmh NNE 0.9 mph1.4 kmh 29.26 in990.9 mb 0.00 in0.0 mm 0.00 in0.0 mm 0.00 in0.0 mm
01:54 AM 57.0°F13.9°C 32.3°F0.2°C 39% Calm Calm -- 29.26 in990.9 mb 0.00 in0.0 mm 0.00 in0.0 mm 0.00 in0.0 mm
01:53 AM 57.0°F13.9°C 31.7°F-0.2°C 38% 3.8 mph NNE6.1 kmh NNE 3.8 mph6.1 kmh 29.26 in990.9 mb 0.00 in0.0 mm 0.00 in0.0 mm 0.00 in0.0 mm
01:52 AM 57.0°F13.9°C 31.7°F-0.2°C 38% Calm Calm -- 29.26 in990.9 mb 0.00 in0.0 mm 0.00 in0.0 mm 0.00 in0.0 mm
01:51 AM 57.0°F13.9°C 31.7°F-0.2°C 38% Calm Calm 0.9 mph1.4 kmh 29.26 in990.9 mb 0.00 in0.0 mm 0.00 in0.0 mm 0.00 in0.0 mm
01:50 AM 57.2°F14.0°C 31.8°F-0.1°C 38% Calm Calm -- 29.26 in990.9 mb 0.00 in0.0 mm 0.00 in0.0 mm 0.00 in0.0 mm
01:49 AM 57.2°F14.0°C 31.8°F-0.1°C 38% Calm Calm -- 29.26 in990.9 mb 0.00 in0.0 mm 0.00 in0.0 mm 0.00 in0.0 mm
01:47 AM 57.2°F14.0°C 31.8°F-0.1°C 38% Calm Calm -- 29.26 in990.9 mb 0.00 in0.0 mm 0.00 in0.0 mm 0.00 in0.0 mm
01:46 AM 57.2°F14.0°C 31.2°F-0.4°C 37% 1.1 mph ENE1.8 kmh ENE 1.1 mph1.8 kmh 29.26 in990.9 mb 0.00 in0.0 mm 0.00 in0.0 mm 0.00 in0.0 mm
01:45 AM 57.2°F14.0°C 31.2°F-0.4°C 37% Calm Calm -- 29.26 in990.9 mb 0.00 in0.0 mm 0.00 in0.0 mm 0.00 in0.0 mm
01:44 AM 57.2°F14.0°C 31.2°F-0.4°C 37% Calm Calm -- 29.26 in990.9 mb 0.00 in0.0 mm 0.00 in0.0 mm 0.00 in0.0 mm
01:43 AM 57.2°F14.0°C 31.2°F-0.4°C 37% Calm Calm 1.6 mph2.6 kmh 29.26 in990.9 mb 0.00 in0.0 mm 0.00 in0.0 mm 0.00 in0.0 mm
01:41 AM 57.2°F14.0°C 31.2°F-0.4°C 37% Calm Calm -- 29.26 in990.9 mb 0.00 in0.0 mm 0.00 in0.0 mm 0.00 in0.0 mm
01:40 AM 57.4°F14.1°C 31.3°F-0.4°C 37% Calm Calm -- 29.26 in990.9 mb 0.00 in0.0 mm 0.00 in0.0 mm 0.00 in0.0 mm
01:38 AM 57.4°F14.1°C 31.3°F-0.4°C 37% Calm Calm -- 29.26 in990.9 mb 0.00 in0.0 mm 0.00 in0.0 mm 0.00 in0.0 mm
01:37 AM 57.4°F14.1°C 31.3°F-0.4°C 37% Calm Calm 1.6 mph2.6 kmh 29.26 in990.9 mb 0.00 in0.0 mm 0.00 in0.0 mm 0.00 in0.0 mm
01:36 AM 57.4°F14.1°C 30.7°F-0.7°C 36% Calm Calm -- 29.26 in990.9 mb 0.00 in0.0 mm 0.00 in0.0 mm 0.00 in0.0 mm
01:35 AM 57.4°F14.1°C 30.7°F-0.7°C 36% Calm Calm -- 29.26 in990.9 mb 0.00 in0.0 mm 0.00 in0.0 mm 0.00 in0.0 mm
01:34 AM 57.4°F14.1°C 30.7°F-0.7°C 36% Calm Calm -- 29.26 in990.9 mb 0.00 in0.0 mm 0.00 in0.0 mm 0.00 in0.0 mm
01:33 AM 57.4°F14.1°C 30.7°F-0.7°C 36% 2.0 mph W3.2 kmh W 2.0 mph3.2 kmh 29.26 in990.9 mb 0.00 in0.0 mm 0.00 in0.0 mm 0.00 in0.0 mm
01:32 AM 57.4°F14.1°C 30.7°F-0.7°C 36% Calm Calm -- 29.26 in990.9 mb 0.00 in0.0 mm 0.00 in0.0 mm 0.00 in0.0 mm
01:31 AM 57.4°F14.1°C 30.7°F-0.7°C 36% Calm Calm -- 29.26 in990.9 mb 0.00 in0.0 mm 0.00 in0.0 mm 0.00 in0.0 mm
01:30 AM 57.6°F14.2°C 30.8°F-0.7°C 36% 1.6 mph W2.6 kmh W 1.6 mph2.6 kmh 29.26 in990.9 mb 0.00 in0.0 mm 0.00 in0.0 mm 0.00 in0.0 mm
01:29 AM 57.4°F14.1°C 30.7°F-0.7°C 36% Calm Calm -- 29.26 in990.9 mb 0.00 in0.0 mm 0.00 in0.0 mm 0.00 in0.0 mm
01:28 AM 57.6°F14.2°C 30.8°F-0.7°C 36% Calm Calm -- 29.26 in990.9 mb 0.00 in0.0 mm 0.00 in0.0 mm 0.00 in0.0 mm
01:27 AM 57.6°F14.2°C 30.8°F-0.7°C 36% 1.3 mph S2.1 kmh S 1.6 mph2.6 kmh 29.26 in990.9 mb 0.00 in0.0 mm 0.00 in0.0 mm 0.00 in0.0 mm
01:26 AM 57.6°F14.2°C 30.8°F-0.7°C 36% Calm Calm -- 29.26 in990.9 mb 0.00 in0.0 mm 0.00 in0.0 mm 0.00 in0.0 mm
01:25 AM 57.6°F14.2°C 30.8°F-0.7°C 36% Calm Calm -- 29.26 in990.9 mb 0.00 in0.0 mm 0.00 in0.0 mm 0.00 in0.0 mm
01:24 AM 57.6°F14.2°C 30.8°F-0.7°C 36% 0.9 mph W1.4 kmh W 0.9 mph1.4 kmh 29.26 in990.9 mb 0.00 in0.0 mm 0.00 in0.0 mm 0.00 in0.0 mm
01:23 AM 57.6°F14.2°C 30.8°F-0.7°C 36% Calm Calm 1.1 mph1.8 kmh 29.26 in990.9 mb 0.00 in0.0 mm 0.00 in0.0 mm 0.00 in0.0 mm
01:22 AM 57.6°F14.2°C 30.8°F-0.7°C 36% Calm Calm 2.2 mph3.5 kmh 29.26 in990.9 mb 0.00 in0.0 mm 0.00 in0.0 mm 0.00 in0.0 mm
01:21 AM 57.6°F14.2°C 30.8°F-0.7°C 36% Calm Calm -- 29.26 in990.9 mb 0.00 in0.0 mm 0.00 in0.0 mm 0.00 in0.0 mm
01:20 AM 57.6°F14.2°C 30.1°F-1.1°C 35% Calm Calm -- 29.26 in990.9 mb 0.00 in0.0 mm 0.00 in0.0 mm 0.00 in0.0 mm
01:19 AM 57.6°F14.2°C 30.1°F-1.1°C 35% 1.1 mph ESE1.8 kmh ESE 1.1 mph1.8 kmh 29.26 in990.9 mb 0.00 in0.0 mm 0.00 in0.0 mm 0.00 in0.0 mm
01:18 AM 57.6°F14.2°C 30.1°F-1.1°C 35% Calm Calm -- 29.26 in990.9 mb 0.00 in0.0 mm 0.00 in0.0 mm 0.00 in0.0 mm
01:17 AM 57.6°F14.2°C 30.1°F-1.1°C 35% Calm Calm -- 29.26 in990.9 mb 0.00 in0.0 mm 0.00 in0.0 mm 0.00 in0.0 mm
01:16 AM 57.6°F14.2°C 30.1°F-1.1°C 35% Calm Calm -- 29.26 in990.9 mb 0.00 in0.0 mm 0.00 in0.0 mm 0.00 in0.0 mm
01:15 AM 57.6°F14.2°C 30.1°F-1.1°C 35% Calm Calm -- 29.26 in990.9 mb 0.00 in0.0 mm 0.00 in0.0 mm 0.00 in0.0 mm
01:14 AM 57.7°F14.3°C 30.3°F-0.9°C 35% Calm Calm -- 29.26 in990.9 mb 0.00 in0.0 mm 0.00 in0.0 mm 0.00 in0.0 mm
01:13 AM 57.7°F14.3°C 30.3°F-0.9°C 35% 2.0 mph WSW3.2 kmh WSW 2.0 mph3.2 kmh 29.26 in990.9 mb 0.00 in0.0 mm 0.00 in0.0 mm 0.00 in0.0 mm
01:12 AM 57.7°F14.3°C 30.3°F-0.9°C 35% Calm Calm -- 29.26 in990.9 mb 0.00 in0.0 mm 0.00 in0.0 mm 0.00 in0.0 mm
01:11 AM 57.9°F14.4°C 30.5°F-0.8°C 35% Calm Calm -- 29.26 in990.9 mb 0.00 in0.0 mm 0.00 in0.0 mm 0.00 in0.0 mm
01:10 AM 57.9°F14.4°C 29.7°F-1.3°C 34% Calm Calm -- 29.26 in990.9 mb 0.00 in0.0 mm 0.00 in0.0 mm 0.00 in0.0 mm
01:09 AM 57.9°F14.4°C 30.5°F-0.8°C 35% Calm Calm 1.1 mph1.8 kmh 29.26 in990.9 mb 0.00 in0.0 mm 0.00 in0.0 mm 0.00 in0.0 mm
01:08 AM 58.1°F14.5°C 30.6°F-0.8°C 35% Calm Calm -- 29.26 in990.9 mb 0.00 in0.0 mm 0.00 in0.0 mm 0.00 in0.0 mm
01:07 AM 58.1°F14.5°C 30.6°F-0.8°C 35% Calm Calm 2.9 mph4.7 kmh 29.26 in990.9 mb 0.00 in0.0 mm 0.00 in0.0 mm 0.00 in0.0 mm
01:06 AM 58.1°F14.5°C 30.6°F-0.8°C 35% 1.6 mph WSW2.6 kmh WSW 1.6 mph2.6 kmh 29.26 in990.9 mb 0.00 in0.0 mm 0.00 in0.0 mm 0.00 in0.0 mm
01:05 AM 58.1°F14.5°C 29.9°F-1.2°C 34% Calm Calm -- 29.26 in990.9 mb 0.00 in0.0 mm 0.00 in0.0 mm 0.00 in0.0 mm
01:04 AM 58.3°F14.6°C 29.3°F-1.5°C 33% Calm Calm -- 29.26 in990.9 mb 0.00 in0.0 mm 0.00 in0.0 mm 0.00 in0.0 mm
01:02 AM 58.3°F14.6°C 29.3°F-1.5°C 33% Calm Calm -- 29.26 in990.9 mb 0.00 in0.0 mm 0.00 in0.0 mm 0.00 in0.0 mm
01:01 AM 58.3°F14.6°C 29.3°F-1.5°C 33% Calm Calm -- 29.26 in990.9 mb 0.00 in0.0 mm 0.00 in0.0 mm 0.00 in0.0 mm
01:00 AM 58.3°F14.6°C 27.8°F-2.3°C 31% Calm Calm -- 29.26 in990.9 mb 0.00 in0.0 mm 0.00 in0.0 mm 0.00 in0.0 mm
12:59 AM 58.5°F14.7°C 28.0°F-2.2°C 31% Calm Calm -- 29.29 in991.9 mb 0.00 in0.0 mm 0.00 in0.0 mm 0.00 in0.0 mm
12:58 AM 58.5°F14.7°C 28.0°F-2.2°C 31% Calm Calm -- 29.29 in991.9 mb 0.00 in0.0 mm 0.00 in0.0 mm 0.00 in0.0 mm
12:57 AM 58.6°F14.8°C 28.1°F-2.2°C 31% 1.1 mph 1.8 kmh 1.1 mph1.8 kmh 29.29 in991.9 mb 0.00 in0.0 mm 0.00 in0.0 mm 0.00 in0.0 mm
12:56 AM 58.8°F14.9°C 27.5°F-2.5°C 30% 1.1 mph 1.8 kmh 1.1 mph1.8 kmh 29.29 in991.9 mb 0.00 in0.0 mm 0.00 in0.0 mm 0.00 in0.0 mm
12:55 AM 58.8°F14.9°C 28.3°F-2.1°C 31% Calm Calm -- 29.29 in991.9 mb 0.00 in0.0 mm 0.00 in0.0 mm 0.00 in0.0 mm
12:54 AM 58.8°F14.9°C 27.5°F-2.5°C 30% 2.2 mph SW3.5 kmh SW 2.2 mph3.5 kmh 29.29 in991.9 mb 0.00 in0.0 mm 0.00 in0.0 mm 0.00 in0.0 mm
12:53 AM 59.0°F15.0°C 27.6°F-2.4°C 30% Calm Calm -- 29.29 in991.9 mb 0.00 in0.0 mm 0.00 in0.0 mm 0.00 in0.0 mm
12:52 AM 59.0°F15.0°C 26.8°F-2.9°C 29% Calm Calm -- 29.29 in991.9 mb 0.00 in0.0 mm 0.00 in0.0 mm 0.00 in0.0 mm
12:50 AM 59.0°F15.0°C 26.8°F-2.9°C 29% 3.8 mph W6.1 kmh W 3.8 mph6.1 kmh 29.29 in991.9 mb 0.00 in0.0 mm 0.00 in0.0 mm 0.00 in0.0 mm
12:49 AM 59.0°F15.0°C 26.0°F-3.3°C 28% 2.5 mph 4.0 kmh 2.5 mph4.0 kmh 29.29 in991.9 mb 0.00 in0.0 mm 0.00 in0.0 mm 0.00 in0.0 mm
12:48 AM 59.0°F15.0°C 26.0°F-3.3°C 28% 1.1 mph W1.8 kmh W 1.1 mph1.8 kmh 29.29 in991.9 mb 0.00 in0.0 mm 0.00 in0.0 mm 0.00 in0.0 mm
12:47 AM 59.0°F15.0°C 26.0°F-3.3°C 28% Calm Calm -- 29.29 in991.9 mb 0.00 in0.0 mm 0.00 in0.0 mm 0.00 in0.0 mm
12:46 AM 59.2°F15.1°C 26.1°F-3.3°C 28% 3.8 mph NNE6.1 kmh NNE 3.8 mph6.1 kmh 29.29 in991.9 mb 0.00 in0.0 mm 0.00 in0.0 mm 0.00 in0.0 mm
12:45 AM 59.2°F15.1°C 26.1°F-3.3°C 28% 2.5 mph ENE4.0 kmh ENE 2.5 mph4.0 kmh 29.29 in991.9 mb 0.00 in0.0 mm 0.00 in0.0 mm 0.00 in0.0 mm
12:44 AM 59.2°F15.1°C 26.1°F-3.3°C 28% Calm Calm -- 29.29 in991.9 mb 0.00 in0.0 mm 0.00 in0.0 mm 0.00 in0.0 mm
12:43 AM 59.2°F15.1°C 26.1°F-3.3°C 28% 1.3 mph 2.1 kmh 1.3 mph2.1 kmh 29.29 in991.9 mb 0.00 in0.0 mm 0.00 in0.0 mm 0.00 in0.0 mm
12:41 AM 59.4°F15.2°C 26.3°F-3.2°C 28% 1.3 mph SSW2.1 kmh SSW 1.3 mph2.1 kmh 29.29 in991.9 mb 0.00 in0.0 mm 0.00 in0.0 mm 0.00 in0.0 mm
12:40 AM 59.4°F15.2°C 26.3°F-3.2°C 28% Calm Calm -- 29.29 in991.9 mb 0.00 in0.0 mm 0.00 in0.0 mm 0.00 in0.0 mm
12:39 AM 59.4°F15.2°C 26.3°F-3.2°C 28% Calm Calm -- 29.29 in991.9 mb 0.00 in0.0 mm 0.00 in0.0 mm 0.00 in0.0 mm
12:38 AM 59.4°F15.2°C 26.3°F-3.2°C 28% 2.9 mph NNE4.7 kmh NNE 2.9 mph4.7 kmh 29.29 in991.9 mb 0.00 in0.0 mm 0.00 in0.0 mm 0.00 in0.0 mm
12:37 AM 59.5°F15.3°C 25.6°F-3.6°C 27% Calm Calm -- 29.29 in991.9 mb 0.00 in0.0 mm 0.00 in0.0 mm 0.00 in0.0 mm
12:36 AM 59.5°F15.3°C 25.6°F-3.6°C 27% Calm Calm -- 29.29 in991.9 mb 0.00 in0.0 mm 0.00 in0.0 mm 0.00 in0.0 mm
12:35 AM 59.5°F15.3°C 25.6°F-3.6°C 27% Calm Calm -- 29.29 in991.9 mb 0.00 in0.0 mm 0.00 in0.0 mm 0.00 in0.0 mm
12:34 AM 59.7°F15.4°C 26.6°F-3.0°C 28% Calm Calm -- 29.29 in991.9 mb 0.00 in0.0 mm 0.00 in0.0 mm 0.00 in0.0 mm
12:33 AM 59.7°F15.4°C 25.7°F-3.5°C 27% Calm Calm 2.5 mph4.0 kmh 29.29 in991.9 mb 0.00 in0.0 mm 0.00 in0.0 mm 0.00 in0.0 mm
12:32 AM 59.7°F15.4°C 25.7°F-3.5°C 27% 2.7 mph WSW4.3 kmh WSW 2.7 mph4.3 kmh 29.29 in991.9 mb 0.00 in0.0 mm 0.00 in0.0 mm 0.00 in0.0 mm
12:31 AM 59.7°F15.4°C 25.7°F-3.5°C 27% Calm Calm -- 29.29 in991.9 mb 0.00 in0.0 mm 0.00 in0.0 mm 0.00 in0.0 mm
12:29 AM 59.9°F15.5°C 25.9°F-3.4°C 27% Calm Calm -- 29.29 in991.9 mb 0.00 in0.0 mm 0.00 in0.0 mm 0.00 in0.0 mm
12:28 AM 59.9°F15.5°C 25.9°F-3.4°C 27% Calm Calm -- 29.29 in991.9 mb 0.00 in0.0 mm 0.00 in0.0 mm 0.00 in0.0 mm
12:27 AM 60.1°F15.6°C 26.0°F-3.3°C 27% 2.2 mph WSW3.5 kmh WSW 2.2 mph3.5 kmh 29.29 in991.9 mb 0.00 in0.0 mm 0.00 in0.0 mm 0.00 in0.0 mm
12:26 AM 60.1°F15.6°C 26.0°F-3.3°C 27% 2.5 mph S4.0 kmh S 3.4 mph5.5 kmh 29.29 in991.9 mb 0.00 in0.0 mm 0.00 in0.0 mm 0.00 in0.0 mm
12:25 AM 60.1°F15.6°C 26.0°F-3.3°C 27% 2.9 mph 4.7 kmh 2.9 mph4.7 kmh 29.29 in991.9 mb 0.00 in0.0 mm 0.00 in0.0 mm 0.00 in0.0 mm
12:23 AM 60.1°F15.6°C 26.0°F-3.3°C 27% 3.8 mph 6.1 kmh 4.0 mph6.4 kmh 29.29 in991.9 mb 0.00 in0.0 mm 0.00 in0.0 mm 0.00 in0.0 mm
12:22 AM 60.1°F15.6°C 26.0°F-3.3°C 27% 2.5 mph W4.0 kmh W 2.5 mph4.0 kmh 29.29 in991.9 mb 0.00 in0.0 mm 0.00 in0.0 mm 0.00 in0.0 mm
12:21 AM 60.1°F15.6°C 26.0°F-3.3°C 27% 2.5 mph ESE4.0 kmh ESE 2.5 mph4.0 kmh 29.29 in991.9 mb 0.00 in0.0 mm 0.00 in0.0 mm 0.00 in0.0 mm
12:20 AM 60.1°F15.6°C 26.0°F-3.3°C 27% Calm Calm -- 29.29 in991.9 mb 0.00 in0.0 mm 0.00 in0.0 mm 0.00 in0.0 mm
12:19 AM 60.1°F15.6°C 26.0°F-3.3°C 27% Calm Calm -- 29.29 in991.9 mb 0.00 in0.0 mm 0.00 in0.0 mm 0.00 in0.0 mm
12:18 AM 60.1°F15.6°C 26.9°F-2.8°C 28% 2.7 mph W4.3 kmh W 2.7 mph4.3 kmh 29.29 in991.9 mb 0.00 in0.0 mm 0.00 in0.0 mm 0.00 in0.0 mm
12:17 AM 60.3°F15.7°C 27.1°F-2.7°C 28% 1.3 mph SSE2.1 kmh SSE 1.3 mph2.1 kmh 29.29 in991.9 mb 0.00 in0.0 mm 0.00 in0.0 mm 0.00 in0.0 mm
12:16 AM 60.3°F15.7°C 27.1°F-2.7°C 28% 0.9 mph W1.4 kmh W 0.9 mph1.4 kmh 29.29 in991.9 mb 0.00 in0.0 mm 0.00 in0.0 mm 0.00 in0.0 mm
12:14 AM 60.3°F15.7°C 27.1°F-2.7°C 28% Calm Calm -- 29.29 in991.9 mb 0.00 in0.0 mm 0.00 in0.0 mm 0.00 in0.0 mm
12:12 AM 60.3°F15.7°C 27.1°F-2.7°C 28% 1.1 mph W1.8 kmh W 1.1 mph1.8 kmh 29.29 in991.9 mb 0.00 in0.0 mm 0.00 in0.0 mm 0.00 in0.0 mm
12:11 AM 60.3°F15.7°C 27.1°F-2.7°C 28% Calm Calm -- 29.29 in991.9 mb 0.00 in0.0 mm 0.00 in0.0 mm 0.00 in0.0 mm
12:10 AM 60.3°F15.7°C 27.1°F-2.7°C 28% Calm Calm -- 29.29 in991.9 mb 0.00 in0.0 mm 0.00 in0.0 mm 0.00 in0.0 mm
12:09 AM 60.3°F15.7°C 27.1°F-2.7°C 28% Calm Calm -- 29.29 in991.9 mb 0.00 in0.0 mm 0.00 in0.0 mm 0.00 in0.0 mm
12:08 AM 60.3°F15.7°C 27.1°F-2.7°C 28% Calm Calm -- 29.29 in991.9 mb 0.00 in0.0 mm 0.00 in0.0 mm 0.00 in0.0 mm
12:07 AM 60.3°F15.7°C 27.1°F-2.7°C 28% Calm Calm -- 29.29 in991.9 mb 0.00 in0.0 mm 0.00 in0.0 mm 0.00 in0.0 mm
12:06 AM 60.3°F15.7°C 27.1°F-2.7°C 28% Calm Calm -- 29.29 in991.9 mb 0.00 in0.0 mm 0.00 in0.0 mm 0.00 in0.0 mm
12:05 AM 60.3°F15.7°C 27.1°F-2.7°C 28% Calm Calm -- 29.29 in991.9 mb 0.00 in0.0 mm 0.00 in0.0 mm 0.00 in0.0 mm
12:04 AM 60.3°F15.7°C 27.1°F-2.7°C 28% Calm Calm -- 29.29 in991.9 mb 0.00 in0.0 mm 0.00 in0.0 mm 0.00 in0.0 mm
12:03 AM 60.3°F15.7°C 27.1°F-2.7°C 28% Calm Calm 0.9 mph1.4 kmh 29.29 in991.9 mb 0.00 in0.0 mm 0.00 in0.0 mm 0.00 in0.0 mm
12:02 AM 60.3°F15.7°C 27.1°F-2.7°C 28% Calm Calm -- 29.29 in991.9 mb 0.00 in0.0 mm 0.00 in0.0 mm 0.00 in0.0 mm
12:01 AM 60.3°F15.7°C 27.1°F-2.7°C 28% 1.1 mph SSE1.8 kmh SSE 2.7 mph4.3 kmh 29.29 in991.9 mb 0.00 in0.0 mm 0.00 in0.0 mm 0.00 in0.0 mm
12:00 AM 60.3°F15.7°C 27.1°F-2.7°C 28% 2.7 mph SW4.3 kmh SW 3.1 mph5.0 kmh 29.29 in991.9 mb 0.00 in0.0 mm 0.00 in0.0 mm 0.00 in0.0 mm